sensor_id;sensor_type;location;lat;lon;timestamp;pressure;altitude;pressure_sealevel;temperature;humidity
21706;BME280;11014;53.076;18.208;2023-10-08T00:01:31;101087.03;;;15.17;72.30
21706;BME280;11014;53.076;18.208;2023-10-08T00:04:02;101086.75;;;15.13;72.38
21706;BME280;11014;53.076;18.208;2023-10-08T00:06:33;101088.34;;;15.14;72.55
21706;BME280;11014;53.076;18.208;2023-10-08T00:09:02;101097.88;;;15.17;72.45
21706;BME280;11014;53.076;18.208;2023-10-08T00:11:37;101099.75;;;15.16;72.50
21706;BME280;11014;53.076;18.208;2023-10-08T00:14:07;101107.22;;;15.09;72.75
21706;BME280;11014;53.076;18.208;2023-10-08T00:16:39;101096.56;;;15.03;72.72
21706;BME280;11014;53.076;18.208;2023-10-08T00:19:08;101100.69;;;15.05;72.55
21706;BME280;11014;53.076;18.208;2023-10-08T00:24:33;101111.00;;;15.08;72.54
21706;BME280;11014;53.076;18.208;2023-10-08T00:27:01;101121.03;;;15.08;72.58
21706;BME280;11014;53.076;18.208;2023-10-08T00:29:32;101098.28;;;15.09;72.24
21706;BME280;11014;53.076;18.208;2023-10-08T00:32:01;101093.47;;;15.11;72.35
21706;BME280;11014;53.076;18.208;2023-10-08T00:34:42;101094.25;;;15.11;72.02
21706;BME280;11014;53.076;18.208;2023-10-08T00:37:11;101094.59;;;15.15;71.93
21706;BME280;11014;53.076;18.208;2023-10-08T00:39:43;101091.41;;;15.39;71.66
21706;BME280;11014;53.076;18.208;2023-10-08T00:42:13;101104.03;;;15.12;71.41
21706;BME280;11014;53.076;18.208;2023-10-08T00:44:42;101122.06;;;15.07;71.77
21706;BME280;11014;53.076;18.208;2023-10-08T00:47:19;101124.78;;;15.07;71.59
21706;BME280;11014;53.076;18.208;2023-10-08T00:49:54;101132.16;;;15.11;71.69
21706;BME280;11014;53.076;18.208;2023-10-08T00:52:32;101148.97;;;15.13;71.35
21706;BME280;11014;53.076;18.208;2023-10-08T00:55:14;101156.25;;;15.13;70.76
21706;BME280;11014;53.076;18.208;2023-10-08T00:57:58;101152.66;;;15.07;70.36
21706;BME280;11014;53.076;18.208;2023-10-08T01:00:27;101152.16;;;15.10;69.02
21706;BME280;11014;53.076;18.208;2023-10-08T01:03:05;101164.63;;;15.11;68.82
21706;BME280;11014;53.076;18.208;2023-10-08T01:05:45;101145.09;;;15.09;68.82
21706;BME280;11014;53.076;18.208;2023-10-08T01:08:17;101153.16;;;15.04;68.26
21706;BME280;11014;53.076;18.208;2023-10-08T01:10:51;101155.28;;;15.02;68.16
21706;BME280;11014;53.076;18.208;2023-10-08T01:13:32;101148.72;;;14.98;67.92
21706;BME280;11014;53.076;18.208;2023-10-08T01:16:11;101154.13;;;14.98;67.87
21706;BME280;11014;53.076;18.208;2023-10-08T01:18:40;101155.94;;;14.93;67.59
21706;BME280;11014;53.076;18.208;2023-10-08T01:21:14;101164.78;;;14.88;67.11
21706;BME280;11014;53.076;18.208;2023-10-08T01:23:58;101169.13;;;14.89;67.26
21706;BME280;11014;53.076;18.208;2023-10-08T01:26:28;101173.97;;;14.87;67.12
21706;BME280;11014;53.076;18.208;2023-10-08T01:28:59;101168.56;;;14.87;67.14
21706;BME280;11014;53.076;18.208;2023-10-08T01:31:35;101159.88;;;14.85;67.35
21706;BME280;11014;53.076;18.208;2023-10-08T01:34:04;101175.53;;;14.83;67.26
21706;BME280;11014;53.076;18.208;2023-10-08T01:36:35;101182.81;;;14.82;67.17
21706;BME280;11014;53.076;18.208;2023-10-08T01:39:04;101196.84;;;14.96;66.22
21706;BME280;11014;53.076;18.208;2023-10-08T01:41:35;101213.66;;;14.98;65.56
21706;BME280;11014;53.076;18.208;2023-10-08T01:44:08;101215.38;;;15.04;65.25
21706;BME280;11014;53.076;18.208;2023-10-08T01:46:37;101228.91;;;15.04;64.78
21706;BME280;11014;53.076;18.208;2023-10-08T01:49:09;101238.06;;;15.03;64.30
21706;BME280;11014;53.076;18.208;2023-10-08T01:51:43;101234.47;;;14.98;63.93
21706;BME280;11014;53.076;18.208;2023-10-08T01:54:15;101229.78;;;14.93;63.82
21706;BME280;11014;53.076;18.208;2023-10-08T01:56:47;101231.34;;;14.89;63.80
21706;BME280;11014;53.076;18.208;2023-10-08T01:59:16;101242.06;;;14.84;63.52
21706;BME280;11014;53.076;18.208;2023-10-08T02:01:45;101249.63;;;14.82;63.30
21706;BME280;11014;53.076;18.208;2023-10-08T02:04:14;101249.63;;;14.82;62.89
21706;BME280;11014;53.076;18.208;2023-10-08T02:06:46;101251.75;;;14.80;62.06
21706;BME280;11014;53.076;18.208;2023-10-08T02:09:15;101248.69;;;14.76;61.99
21706;BME280;11014;53.076;18.208;2023-10-08T02:11:46;101253.75;;;14.73;61.31
21706;BME280;11014;53.076;18.208;2023-10-08T02:14:14;101255.06;;;14.70;61.44
21706;BME280;11014;53.076;18.208;2023-10-08T02:16:53;101249.91;;;14.69;61.00
21706;BME280;11014;53.076;18.208;2023-10-08T02:19:24;101270.47;;;14.98;60.39
21706;BME280;11014;53.076;18.208;2023-10-08T02:21:58;101272.59;;;14.68;60.35
21706;BME280;11014;53.076;18.208;2023-10-08T02:24:26;101277.25;;;14.56;59.83
21706;BME280;11014;53.076;18.208;2023-10-08T02:26:55;101278.31;;;14.55;59.54
21706;BME280;11014;53.076;18.208;2023-10-08T02:29:29;101285.84;;;14.53;59.39
21706;BME280;11014;53.076;18.208;2023-10-08T02:31:59;101287.38;;;14.49;58.63
21706;BME280;11014;53.076;18.208;2023-10-08T02:34:27;101287.38;;;14.49;58.69
21706;BME280;11014;53.076;18.208;2023-10-08T02:36:56;101291.84;;;14.43;57.87
21706;BME280;11014;53.076;18.208;2023-10-08T02:39:25;101292.00;;;14.37;57.78
21706;BME280;11014;53.076;18.208;2023-10-08T02:41:58;101297.88;;;14.34;57.39
21706;BME280;11014;53.076;18.208;2023-10-08T02:44:29;101293.75;;;14.31;57.12
21706;BME280;11014;53.076;18.208;2023-10-08T02:46:59;101297.59;;;14.23;57.19
21706;BME280;11014;53.076;18.208;2023-10-08T02:49:27;101311.84;;;14.19;57.29
21706;BME280;11014;53.076;18.208;2023-10-08T02:51:58;101311.63;;;14.09;57.10
21706;BME280;11014;53.076;18.208;2023-10-08T02:54:27;101314.34;;;13.97;57.08
21706;BME280;11014;53.076;18.208;2023-10-08T02:57:04;101324.91;;;13.87;56.77
21706;BME280;11014;53.076;18.208;2023-10-08T02:59:39;101326.78;;;13.75;56.67
21706;BME280;11014;53.076;18.208;2023-10-08T03:02:17;101335.47;;;13.65;56.74
21706;BME280;11014;53.076;18.208;2023-10-08T03:04:51;101333.78;;;13.53;56.45
21706;BME280;11014;53.076;18.208;2023-10-08T03:07:21;101337.91;;;13.44;56.35
21706;BME280;11014;53.076;18.208;2023-10-08T03:09:52;101344.91;;;13.33;56.40
21706;BME280;11014;53.076;18.208;2023-10-08T03:12:46;101345.00;;;13.27;56.12
21706;BME280;11014;53.076;18.208;2023-10-08T03:15:15;101354.72;;;13.16;56.18
21706;BME280;11014;53.076;18.208;2023-10-08T03:18:00;101351.88;;;13.11;56.63
21706;BME280;11014;53.076;18.208;2023-10-08T03:20:38;101367.75;;;13.01;56.42
21706;BME280;11014;53.076;18.208;2023-10-08T03:23:15;101371.00;;;12.91;56.73
21706;BME280;11014;53.076;18.208;2023-10-08T03:26:03;101373.88;;;12.78;56.30
21706;BME280;11014;53.076;18.208;2023-10-08T03:28:39;101379.72;;;12.75;56.40
21706;BME280;11014;53.076;18.208;2023-10-08T03:31:10;101389.75;;;12.68;56.70
21706;BME280;11014;53.076;18.208;2023-10-08T03:33:47;101394.25;;;12.56;55.84
21706;BME280;11014;53.076;18.208;2023-10-08T03:36:20;101392.38;;;12.57;55.66
21706;BME280;11014;53.076;18.208;2023-10-08T03:38:49;101401.13;;;12.52;55.14
21706;BME280;11014;53.076;18.208;2023-10-08T03:41:24;101403.22;;;12.50;55.31
21706;BME280;11014;53.076;18.208;2023-10-08T03:43:57;101406.22;;;12.42;55.46
21706;BME280;11014;53.076;18.208;2023-10-08T03:46:34;101401.13;;;12.34;55.10
21706;BME280;11014;53.076;18.208;2023-10-08T03:49:15;101407.41;;;12.28;55.34
21706;BME280;11014;53.076;18.208;2023-10-08T03:51:53;101416.34;;;12.22;55.39
21706;BME280;11014;53.076;18.208;2023-10-08T03:54:22;101418.28;;;12.15;55.19
21706;BME280;11014;53.076;18.208;2023-10-08T03:57:03;101424.34;;;12.10;55.47
21706;BME280;11014;53.076;18.208;2023-10-08T03:59:41;101433.06;;;12.06;54.97
21706;BME280;11014;53.076;18.208;2023-10-08T04:02:11;101443.84;;;12.06;54.71
21706;BME280;11014;53.076;18.208;2023-10-08T04:04:44;101442.22;;;12.05;54.73
21706;BME280;11014;53.076;18.208;2023-10-08T04:07:26;101441.66;;;11.96;54.17
21706;BME280;11014;53.076;18.208;2023-10-08T04:10:08;101442.31;;;11.92;54.17
21706;BME280;11014;53.076;18.208;2023-10-08T04:12:36;101446.94;;;11.84;54.23
21706;BME280;11014;53.076;18.208;2023-10-08T04:15:13;101457.09;;;11.82;53.72
21706;BME280;11014;53.076;18.208;2023-10-08T04:17:45;101467.69;;;11.77;53.80
21706;BME280;11014;53.076;18.208;2023-10-08T04:20:20;101464.81;;;11.72;53.76
21706;BME280;11014;53.076;18.208;2023-10-08T04:23:09;101466.69;;;11.65;53.76
21706;BME280;11014;53.076;18.208;2023-10-08T04:25:49;101464.28;;;11.88;53.60
21706;BME280;11014;53.076;18.208;2023-10-08T04:28:23;101473.16;;;11.58;53.43
21706;BME280;11014;53.076;18.208;2023-10-08T04:30:57;101479.22;;;11.47;53.97
21706;BME280;11014;53.076;18.208;2023-10-08T04:33:31;101475.13;;;11.38;53.91
21706;BME280;11014;53.076;18.208;2023-10-08T04:36:03;101474.97;;;11.32;54.19
21706;BME280;11014;53.076;18.208;2023-10-08T04:38:33;101482.84;;;11.27;54.30
21706;BME280;11014;53.076;18.208;2023-10-08T04:41:07;101482.88;;;11.21;54.04
21706;BME280;11014;53.076;18.208;2023-10-08T04:43:39;101483.72;;;11.15;54.45
21706;BME280;11014;53.076;18.208;2023-10-08T04:46:11;101479.63;;;11.06;55.34
21706;BME280;11014;53.076;18.208;2023-10-08T04:49:02;101495.38;;;10.96;55.69
21706;BME280;11014;53.076;18.208;2023-10-08T04:51:35;101498.28;;;10.88;55.86
21706;BME280;11014;53.076;18.208;2023-10-08T04:54:12;101497.50;;;10.81;55.96
21706;BME280;11014;53.076;18.208;2023-10-08T04:56:47;101499.78;;;10.70;56.20
21706;BME280;11014;53.076;18.208;2023-10-08T04:59:17;101503.31;;;10.64;56.27
21706;BME280;11014;53.076;18.208;2023-10-08T05:01:51;101502.47;;;10.57;56.53
21706;BME280;11014;53.076;18.208;2023-10-08T05:04:41;101511.16;;;10.53;56.45
21706;BME280;11014;53.076;18.208;2023-10-08T05:07:35;101517.78;;;10.50;56.30
21706;BME280;11014;53.076;18.208;2023-10-08T05:10:14;101522.34;;;10.43;56.25
21706;BME280;11014;53.076;18.208;2023-10-08T05:12:43;101521.09;;;10.39;56.15
21706;BME280;11014;53.076;18.208;2023-10-08T05:15:19;101527.94;;;10.35;56.27
21706;BME280;11014;53.076;18.208;2023-10-08T05:18:01;101532.88;;;10.32;56.28
21706;BME280;11014;53.076;18.208;2023-10-08T05:20:48;101543.44;;;10.27;56.66
21706;BME280;11014;53.076;18.208;2023-10-08T05:23:19;101562.22;;;10.27;56.72
21706;BME280;11014;53.076;18.208;2023-10-08T05:25:58;101561.38;;;10.26;56.43
21706;BME280;11014;53.076;18.208;2023-10-08T05:28:38;101555.00;;;10.27;56.67
21706;BME280;11014;53.076;18.208;2023-10-08T05:31:29;101571.72;;;10.29;56.60
21706;BME280;11014;53.076;18.208;2023-10-08T05:34:10;101577.94;;;10.30;56.72
21706;BME280;11014;53.076;18.208;2023-10-08T05:36:57;101583.47;;;10.28;56.81
21706;BME280;11014;53.076;18.208;2023-10-08T05:39:29;101588.66;;;10.23;57.02
21706;BME280;11014;53.076;18.208;2023-10-08T05:42:22;101595.03;;;10.22;57.46
21706;BME280;11014;53.076;18.208;2023-10-08T05:44:57;101608.69;;;10.27;57.52
21706;BME280;11014;53.076;18.208;2023-10-08T05:47:37;101611.38;;;10.27;57.58
21706;BME280;11014;53.076;18.208;2023-10-08T05:50:07;101622.53;;;10.24;57.97
21706;BME280;11014;53.076;18.208;2023-10-08T05:52:46;101622.75;;;10.29;57.66
21706;BME280;11014;53.076;18.208;2023-10-08T05:55:31;101623.16;;;10.39;57.46
21706;BME280;11014;53.076;18.208;2023-10-08T05:58:05;101629.78;;;10.43;57.45
21706;BME280;11014;53.076;18.208;2023-10-08T06:00:47;101637.25;;;10.81;57.00
21706;BME280;11014;53.076;18.208;2023-10-08T06:03:18;101639.09;;;10.60;56.92
21706;BME280;11014;53.076;18.208;2023-10-08T06:06:16;101647.16;;;10.67;56.69
21706;BME280;11014;53.076;18.208;2023-10-08T06:08:45;101648.59;;;10.69;56.99
21706;BME280;11014;53.076;18.208;2023-10-08T06:11:36;101653.59;;;10.79;57.08
21706;BME280;11014;53.076;18.208;2023-10-08T06:14:24;101645.91;;;10.83;56.92
21706;BME280;11014;53.076;18.208;2023-10-08T06:17:12;101665.34;;;10.85;56.68
21706;BME280;11014;53.076;18.208;2023-10-08T06:20:02;101659.78;;;10.93;56.55
21706;BME280;11014;53.076;18.208;2023-10-08T06:22:39;101661.41;;;10.94;56.36
21706;BME280;11014;53.076;18.208;2023-10-08T06:25:09;101664.50;;;11.04;56.37
21706;BME280;11014;53.076;18.208;2023-10-08T06:27:51;101664.09;;;11.07;56.04
21706;BME280;11014;53.076;18.208;2023-10-08T06:30:30;101676.72;;;11.13;55.81
21706;BME280;11014;53.076;18.208;2023-10-08T06:33:04;101683.94;;;11.19;55.76
21706;BME280;11014;53.076;18.208;2023-10-08T06:35:33;101683.13;;;11.25;55.54
21706;BME280;11014;53.076;18.208;2023-10-08T06:38:02;101689.72;;;11.29;55.43
21706;BME280;11014;53.076;18.208;2023-10-08T06:40:43;101695.94;;;11.36;54.91
21706;BME280;11014;53.076;18.208;2023-10-08T06:43:12;101703.59;;;11.39;55.11
21706;BME280;11014;53.076;18.208;2023-10-08T06:45:45;101701.72;;;11.46;54.78
21706;BME280;11014;53.076;18.208;2023-10-08T06:48:15;101713.50;;;11.45;54.57
21706;BME280;11014;53.076;18.208;2023-10-08T06:50:51;101710.19;;;11.43;54.60
21706;BME280;11014;53.076;18.208;2023-10-08T06:53:28;101716.56;;;11.81;53.71
21706;BME280;11014;53.076;18.208;2023-10-08T06:56:17;101731.28;;;11.66;53.80
21706;BME280;11014;53.076;18.208;2023-10-08T06:58:48;101726.50;;;11.68;53.28
21706;BME280;11014;53.076;18.208;2023-10-08T07:01:17;101741.81;;;11.67;52.72
21706;BME280;11014;53.076;18.208;2023-10-08T07:03:51;101736.88;;;11.77;52.46
21706;BME280;11014;53.076;18.208;2023-10-08T07:06:20;101738.88;;;11.88;52.72
21706;BME280;11014;53.076;18.208;2023-10-08T07:09:01;101734.94;;;11.98;52.63
21706;BME280;11014;53.076;18.208;2023-10-08T07:11:34;101744.84;;;12.04;51.89
21706;BME280;11014;53.076;18.208;2023-10-08T07:14:06;101750.00;;;12.12;51.61
21706;BME280;11014;53.076;18.208;2023-10-08T07:16:39;101752.47;;;12.20;51.23
21706;BME280;11014;53.076;18.208;2023-10-08T07:19:10;101764.03;;;12.27;50.07
21706;BME280;11014;53.076;18.208;2023-10-08T07:21:49;101763.59;;;12.30;49.29
21706;BME280;11014;53.076;18.208;2023-10-08T07:24:30;101776.63;;;12.39;48.70
21706;BME280;11014;53.076;18.208;2023-10-08T07:27:46;101778.66;;;12.44;48.74
21706;BME280;11014;53.076;18.208;2023-10-08T07:30:18;101778.03;;;12.48;48.28
21706;BME280;11014;53.076;18.208;2023-10-08T07:32:57;101785.22;;;12.61;48.24
21706;BME280;11014;53.076;18.208;2023-10-08T07:35:29;101787.69;;;12.63;48.39
21706;BME280;11014;53.076;18.208;2023-10-08T07:38:07;101796.97;;;12.73;47.41
21706;BME280;11014;53.076;18.208;2023-10-08T07:40:44;101801.06;;;12.82;46.70
21706;BME280;11014;53.076;18.208;2023-10-08T07:43:15;101800.81;;;12.90;46.89
21706;BME280;11014;53.076;18.208;2023-10-08T07:45:48;101804.75;;;12.94;47.00
21706;BME280;11014;53.076;18.208;2023-10-08T07:48:20;101807.53;;;13.06;47.60
21706;BME280;11014;53.076;18.208;2023-10-08T07:50:53;101805.50;;;13.08;46.19
21706;BME280;11014;53.076;18.208;2023-10-08T07:53:29;101809.56;;;13.17;45.95
21706;BME280;11014;53.076;18.208;2023-10-08T07:56:36;101801.16;;;13.32;45.35
21706;BME280;11014;53.076;18.208;2023-10-08T07:59:16;101803.44;;;13.35;45.69
21706;BME280;11014;53.076;18.208;2023-10-08T08:02:13;101804.19;;;13.42;45.73
21706;BME280;11014;53.076;18.208;2023-10-08T08:04:54;101807.09;;;13.47;45.07
21706;BME280;11014;53.076;18.208;2023-10-08T08:07:26;101803.47;;;13.53;44.82
21706;BME280;11014;53.076;18.208;2023-10-08T08:10:09;101805.31;;;13.59;44.71
21706;BME280;11014;53.076;18.208;2023-10-08T08:12:40;101822.44;;;13.71;44.41
21706;BME280;11014;53.076;18.208;2023-10-08T08:15:21;101819.75;;;13.71;43.88
21706;BME280;11014;53.076;18.208;2023-10-08T08:17:51;101826.56;;;13.74;43.53
21706;BME280;11014;53.076;18.208;2023-10-08T08:20:21;101817.94;;;13.83;43.56
21706;BME280;11014;53.076;18.208;2023-10-08T08:22:53;101814.34;;;13.89;43.86
21706;BME280;11014;53.076;18.208;2023-10-08T08:25:25;101820.06;;;13.99;43.93
21706;BME280;11014;53.076;18.208;2023-10-08T08:28:04;101830.56;;;14.07;43.23
21706;BME280;11014;53.076;18.208;2023-10-08T08:30:44;101834.56;;;14.05;42.87
21706;BME280;11014;53.076;18.208;2023-10-08T08:33:18;101841.19;;;14.09;43.00
21706;BME280;11014;53.076;18.208;2023-10-08T08:36:06;101838.56;;;14.20;42.85
21706;BME280;11014;53.076;18.208;2023-10-08T08:39:16;101842.19;;;14.33;43.47
21706;BME280;11014;53.076;18.208;2023-10-08T08:42:07;101850.00;;;14.41;42.99
21706;BME280;11014;53.076;18.208;2023-10-08T08:44:44;101854.94;;;14.44;42.35
21706;BME280;11014;53.076;18.208;2023-10-08T08:47:20;101849.09;;;14.47;43.10
21706;BME280;11014;53.076;18.208;2023-10-08T08:49:56;101847.75;;;14.56;43.52
21706;BME280;11014;53.076;18.208;2023-10-08T08:52:25;101856.72;;;14.68;43.58
21706;BME280;11014;53.076;18.208;2023-10-08T08:54:54;101858.53;;;14.74;43.05
21706;BME280;11014;53.076;18.208;2023-10-08T08:57:23;101873.06;;;14.61;43.04
21706;BME280;11014;53.076;18.208;2023-10-08T08:59:55;101864.94;;;14.61;43.87
21706;BME280;11014;53.076;18.208;2023-10-08T09:02:27;101857.41;;;14.63;42.63
21706;BME280;11014;53.076;18.208;2023-10-08T09:04:57;101880.03;;;14.69;43.25
21706;BME280;11014;53.076;18.208;2023-10-08T09:07:28;101869.19;;;14.69;42.07
21706;BME280;11014;53.076;18.208;2023-10-08T09:09:57;101867.09;;;14.71;41.64
21706;BME280;11014;53.076;18.208;2023-10-08T09:12:26;101874.16;;;14.72;41.69
21706;BME280;11014;53.076;18.208;2023-10-08T09:15:01;101877.28;;;14.87;41.85
21706;BME280;11014;53.076;18.208;2023-10-08T09:17:31;101876.25;;;14.88;41.71
21706;BME280;11014;53.076;18.208;2023-10-08T09:20:01;101875.69;;;14.98;41.67
21706;BME280;11014;53.076;18.208;2023-10-08T09:22:35;101865.94;;;14.97;40.67
21706;BME280;11014;53.076;18.208;2023-10-08T09:25:04;101865.72;;;14.80;39.38
21706;BME280;11014;53.076;18.208;2023-10-08T09:27:36;101868.25;;;14.93;39.44
21706;BME280;11014;53.076;18.208;2023-10-08T09:30:06;101872.97;;;14.98;39.10
21706;BME280;11014;53.076;18.208;2023-10-08T09:32:42;101878.75;;;15.01;39.96
21706;BME280;11014;53.076;18.208;2023-10-08T09:35:15;101874.69;;;15.10;39.62
21706;BME280;11014;53.076;18.208;2023-10-08T09:37:44;101874.56;;;15.17;39.33
21706;BME280;11014;53.076;18.208;2023-10-08T09:40:13;101872.25;;;15.20;38.45
21706;BME280;11014;53.076;18.208;2023-10-08T09:42:50;101881.06;;;15.27;37.85
21706;BME280;11014;53.076;18.208;2023-10-08T09:45:20;101882.16;;;15.26;36.91
21706;BME280;11014;53.076;18.208;2023-10-08T09:47:54;101867.53;;;15.27;38.06
21706;BME280;11014;53.076;18.208;2023-10-08T09:50:32;101876.91;;;15.43;37.83
21706;BME280;11014;53.076;18.208;2023-10-08T09:53:11;101880.94;;;15.52;38.35
21706;BME280;11014;53.076;18.208;2023-10-08T09:55:57;101897.09;;;15.59;38.15
21706;BME280;11014;53.076;18.208;2023-10-08T09:58:31;101882.63;;;15.65;38.41
21706;BME280;11014;53.076;18.208;2023-10-08T10:04:36;101901.47;;;15.71;36.29
21706;BME280;11014;53.076;18.208;2023-10-08T10:07:56;101897.94;;;15.82;36.04
21706;BME280;11014;53.076;18.208;2023-10-08T10:10:30;101896.91;;;15.83;36.33
21706;BME280;11014;53.076;18.208;2023-10-08T10:13:11;101899.97;;;15.87;36.42
21706;BME280;11014;53.076;18.208;2023-10-08T10:15:42;101913.50;;;15.98;36.16
21706;BME280;11014;53.076;18.208;2023-10-08T10:18:15;101902.09;;;16.08;35.98
21706;BME280;11014;53.076;18.208;2023-10-08T10:20:46;101907.06;;;16.11;36.04
21706;BME280;11014;53.076;18.208;2023-10-08T10:23:41;101907.75;;;16.18;36.28
21706;BME280;11014;53.076;18.208;2023-10-08T10:26:31;101900.91;;;16.27;36.92
21706;BME280;11014;53.076;18.208;2023-10-08T10:29:19;101910.81;;;16.22;36.63
21706;BME280;11014;53.076;18.208;2023-10-08T10:31:50;101916.47;;;16.43;35.90
21706;BME280;11014;53.076;18.208;2023-10-08T10:34:27;101909.00;;;16.50;36.38
21706;BME280;11014;53.076;18.208;2023-10-08T10:36:58;101921.66;;;16.56;36.16
21706;BME280;11014;53.076;18.208;2023-10-08T10:39:28;101902.28;;;16.65;36.21
21706;BME280;11014;53.076;18.208;2023-10-08T10:42:02;101907.44;;;16.78;35.50
21706;BME280;11014;53.076;18.208;2023-10-08T10:44:37;101911.25;;;16.77;36.24
21706;BME280;11014;53.076;18.208;2023-10-08T10:47:10;101913.19;;;16.93;36.50
21706;BME280;11014;53.076;18.208;2023-10-08T10:49:50;101913.97;;;17.05;36.72
21706;BME280;11014;53.076;18.208;2023-10-08T10:52:24;101916.16;;;17.19;35.58
21706;BME280;11014;53.076;18.208;2023-10-08T10:55:04;101906.13;;;17.20;34.14
21706;BME280;11014;53.076;18.208;2023-10-08T10:58:03;101914.19;;;17.15;32.53
21706;BME280;11014;53.076;18.208;2023-10-08T11:00:43;101907.09;;;17.14;32.47
21706;BME280;11014;53.076;18.208;2023-10-08T11:03:13;101912.03;;;17.17;33.39
21706;BME280;11014;53.076;18.208;2023-10-08T11:05:50;101910.09;;;17.29;33.12
21706;BME280;11014;53.076;18.208;2023-10-08T11:08:33;101909.63;;;17.32;32.39
21706;BME280;11014;53.076;18.208;2023-10-08T11:11:07;101912.09;;;17.50;32.33
21706;BME280;11014;53.076;18.208;2023-10-08T11:13:45;101910.06;;;17.57;32.80
21706;BME280;11014;53.076;18.208;2023-10-08T11:16:23;101926.97;;;17.59;32.85
21706;BME280;11014;53.076;18.208;2023-10-08T11:18:53;101911.06;;;17.68;33.95
21706;BME280;11014;53.076;18.208;2023-10-08T11:21:29;101908.84;;;17.82;34.61
21706;BME280;11014;53.076;18.208;2023-10-08T11:24:03;101909.19;;;17.85;35.02
21706;BME280;11014;53.076;18.208;2023-10-08T11:26:37;101920.56;;;17.99;34.69
21706;BME280;11014;53.076;18.208;2023-10-08T11:29:24;101929.13;;;18.07;32.57
21706;BME280;11014;53.076;18.208;2023-10-08T11:32:01;101917.25;;;17.97;30.95
21706;BME280;11014;53.076;18.208;2023-10-08T11:49:14;101917.34;;;22.47;23.04
21706;BME280;11014;53.076;18.208;2023-10-08T11:52:30;101919.66;;;22.94;22.60
21706;BME280;11014;53.076;18.208;2023-10-08T11:55:23;101928.44;;;23.79;21.17
21706;BME280;11014;53.076;18.208;2023-10-08T11:57:55;101931.09;;;24.46;20.52
21706;BME280;11014;53.076;18.208;2023-10-08T12:00:30;101932.41;;;25.20;19.75
21706;BME280;11014;53.076;18.208;2023-10-08T12:03:08;101954.66;;;25.93;19.03
21706;BME280;11014;53.076;18.208;2023-10-08T12:06:00;101942.78;;;26.11;18.82
21706;BME280;11014;53.076;18.208;2023-10-08T12:08:37;101933.69;;;26.43;18.34
21706;BME280;11014;53.076;18.208;2023-10-08T12:11:45;101937.88;;;26.68;18.03
21706;BME280;11014;53.076;18.208;2023-10-08T12:14:22;101942.06;;;26.65;17.75
21706;BME280;11014;53.076;18.208;2023-10-08T12:17:05;101952.81;;;26.94;17.62
21706;BME280;11014;53.076;18.208;2023-10-08T12:19:42;101948.31;;;26.98;17.53
21706;BME280;11014;53.076;18.208;2023-10-08T12:22:11;101943.31;;;26.86;17.60
21706;BME280;11014;53.076;18.208;2023-10-08T12:24:49;101952.59;;;26.90;17.84
21706;BME280;11014;53.076;18.208;2023-10-08T12:27:19;101955.25;;;26.95;17.06
21706;BME280;11014;53.076;18.208;2023-10-08T12:30:14;101947.84;;;27.32;17.53
21706;BME280;11014;53.076;18.208;2023-10-08T12:32:44;101941.56;;;26.90;17.13
21706;BME280;11014;53.076;18.208;2023-10-08T12:35:15;101959.00;;;26.72;17.08
21706;BME280;11014;53.076;18.208;2023-10-08T12:37:51;101952.56;;;27.18;16.82
21706;BME280;11014;53.076;18.208;2023-10-08T12:40:21;101945.34;;;27.44;16.81
21706;BME280;11014;53.076;18.208;2023-10-08T12:42:53;101953.59;;;27.57;16.56
21706;BME280;11014;53.076;18.208;2023-10-08T12:45:50;101949.41;;;28.04;16.61
21706;BME280;11014;53.076;18.208;2023-10-08T12:48:27;101968.34;;;28.50;16.38
21706;BME280;11014;53.076;18.208;2023-10-08T12:50:56;101968.44;;;28.37;15.55
21706;BME280;11014;53.076;18.208;2023-10-08T12:53:27;101958.81;;;28.03;15.43
21706;BME280;11014;53.076;18.208;2023-10-08T12:56:07;101944.25;;;27.67;15.87
21706;BME280;11014;53.076;18.208;2023-10-08T12:58:44;101955.94;;;27.64;16.11
21706;BME280;11014;53.076;18.208;2023-10-08T13:01:16;101952.34;;;27.63;16.83
21706;BME280;11014;53.076;18.208;2023-10-08T13:03:57;101959.81;;;28.07;16.83
21706;BME280;11014;53.076;18.208;2023-10-08T13:07:07;101959.84;;;28.77;16.09
21706;BME280;11014;53.076;18.208;2023-10-08T13:09:54;101958.53;;;28.75;15.61
21706;BME280;11014;53.076;18.208;2023-10-08T13:12:27;101953.44;;;28.60;15.23
21706;BME280;11014;53.076;18.208;2023-10-08T13:14:57;101954.56;;;28.59;15.75
21706;BME280;11014;53.076;18.208;2023-10-08T13:17:54;101949.63;;;28.87;15.95
21706;BME280;11014;53.076;18.208;2023-10-08T13:23:57;101944.22;;;28.73;16.14
21706;BME280;11014;53.076;18.208;2023-10-08T13:26:32;101941.47;;;28.73;16.13
21706;BME280;11014;53.076;18.208;2023-10-08T13:29:01;101959.75;;;28.52;16.39
21706;BME280;11014;53.076;18.208;2023-10-08T13:31:29;101952.28;;;28.61;16.11
21706;BME280;11014;53.076;18.208;2023-10-08T13:34:24;101959.44;;;28.62;15.61
21706;BME280;11014;53.076;18.208;2023-10-08T13:36:54;101969.69;;;28.61;15.33
21706;BME280;11014;53.076;18.208;2023-10-08T13:39:24;101967.81;;;28.40;15.45
21706;BME280;11014;53.076;18.208;2023-10-08T13:41:55;101973.78;;;28.02;16.10
21706;BME280;11014;53.076;18.208;2023-10-08T13:44:30;101975.50;;;28.20;15.91
21706;BME280;11014;53.076;18.208;2023-10-08T13:47:00;101976.97;;;28.49;16.22
21706;BME280;11014;53.076;18.208;2023-10-08T13:49:35;101976.47;;;28.55;16.01
21706;BME280;11014;53.076;18.208;2023-10-08T13:52:13;101964.09;;;28.44;15.28